createdAt,value
2022-12-08T00:01:08.604Z,15.15
2022-12-08T00:03:36.176Z,15.98
2022-12-08T00:06:23.152Z,15.25
2022-12-08T00:09:08.511Z,15.10
2022-12-08T00:11:35.029Z,16.25
2022-12-08T00:14:01.657Z,16.75
2022-12-08T00:16:28.215Z,16.58
2022-12-08T00:18:54.778Z,16.88
2022-12-08T00:21:21.243Z,16.33
2022-12-08T00:23:47.662Z,16.08
2022-12-08T00:26:14.078Z,16.13
2022-12-08T00:28:40.478Z,16.45
2022-12-08T00:31:11.635Z,15.82
2022-12-08T00:33:38.240Z,16.45
2022-12-08T00:36:12.821Z,17.10
2022-12-08T00:38:40.327Z,17.35
2022-12-08T00:41:14.561Z,16.83
2022-12-08T00:43:41.373Z,16.73
2022-12-08T00:46:07.917Z,16.27
2022-12-08T00:48:34.882Z,17.35
2022-12-08T00:51:01.391Z,15.18
2022-12-08T00:53:27.912Z,16.13
2022-12-08T00:55:54.352Z,14.57
2022-12-08T00:58:20.756Z,14.43
2022-12-08T01:00:47.257Z,13.82
2022-12-08T01:03:13.789Z,13.55
2022-12-08T01:05:40.293Z,13.93
2022-12-08T01:08:08.696Z,13.85
2022-12-08T01:10:36.645Z,13.32
2022-12-08T01:13:03.352Z,13.55
2022-12-08T01:15:29.772Z,12.60
2022-12-08T01:17:56.414Z,11.95
2022-12-08T01:20:22.910Z,12.30
2022-12-08T01:22:49.356Z,12.05
2022-12-08T01:25:15.888Z,12.93
2022-12-08T01:27:42.295Z,12.63
2022-12-08T01:30:09.370Z,12.85
2022-12-08T01:32:35.812Z,11.82
2022-12-08T01:35:02.399Z,13.50
2022-12-08T01:37:29.744Z,12.35
2022-12-08T01:39:56.101Z,12.75
2022-12-08T01:42:23.688Z,13.13
2022-12-08T01:44:55.005Z,13.93
2022-12-08T01:47:24.164Z,13.02
2022-12-08T01:49:50.650Z,13.75
2022-12-08T01:52:24.755Z,14.70
2022-12-08T01:55:00.696Z,14.15
2022-12-08T01:57:31.466Z,15.75
2022-12-08T02:00:05.564Z,16.52
2022-12-08T02:02:42.045Z,16.80
2022-12-08T02:05:09.777Z,16.65
2022-12-08T02:07:37.520Z,17.25
2022-12-08T02:10:05.109Z,15.73
2022-12-08T02:12:31.931Z,17.33
2022-12-08T02:15:04.745Z,17.48
2022-12-08T02:17:53.641Z,16.13
2022-12-08T02:20:43.101Z,16.30
2022-12-08T02:23:15.494Z,16.30
2022-12-08T02:25:48.833Z,17.42
2022-12-08T02:28:45.480Z,15.93
2022-12-08T02:31:25.976Z,16.17
2022-12-08T02:34:12.612Z,16.63
2022-12-08T02:37:23.172Z,16.55
2022-12-08T02:40:09.978Z,17.42
2022-12-08T02:42:55.044Z,16.20
2022-12-08T02:45:44.932Z,15.75
2022-12-08T02:48:11.909Z,13.98
2022-12-08T02:50:38.368Z,14.48
2022-12-08T02:55:42.981Z,14.82
2022-12-08T02:58:39.773Z,15.48
2022-12-08T03:01:17.994Z,14.80
2022-12-08T03:03:56.528Z,14.80
2022-12-08T03:06:32.164Z,15.30
2022-12-08T03:09:07.125Z,14.18
2022-12-08T03:11:46.535Z,13.38
2022-12-08T03:14:16.294Z,13.63
2022-12-08T03:16:47.242Z,13.55
2022-12-08T03:19:17.401Z,14.45
2022-12-08T03:21:45.709Z,12.80
2022-12-08T03:24:15.181Z,13.77
2022-12-08T03:26:48.407Z,12.82
2022-12-08T03:29:15.127Z,12.02
2022-12-08T03:31:49.318Z,13.25
2022-12-08T03:34:18.212Z,12.85
2022-12-08T03:36:45.623Z,13.43
2022-12-08T03:39:12.252Z,12.88
2022-12-08T03:41:38.655Z,13.27
2022-12-08T03:44:05.283Z,13.18
2022-12-08T03:46:31.846Z,11.73
2022-12-08T03:48:58.217Z,12.32
2022-12-08T03:51:24.932Z,12.48
2022-12-08T03:53:51.369Z,12.30
2022-12-08T03:56:30.756Z,10.60
2022-12-08T03:58:57.792Z,11.35
2022-12-08T04:01:24.834Z,11.60
2022-12-08T04:03:51.333Z,11.05
2022-12-08T04:06:18.910Z,10.75
2022-12-08T04:08:45.597Z,10.45
2022-12-08T04:11:12.185Z,9.73
2022-12-08T04:13:40.566Z,9.10
2022-12-08T04:16:08.229Z,9.38
2022-12-08T04:18:35.816Z,9.93
2022-12-08T04:21:02.375Z,8.93
2022-12-08T04:23:28.781Z,9.73
2022-12-08T04:25:55.213Z,10.25
2022-12-08T04:28:21.773Z,10.38
2022-12-08T04:30:49.285Z,10.82
2022-12-08T04:33:16.094Z,10.80
2022-12-08T04:35:42.592Z,10.25
2022-12-08T04:38:09.069Z,10.43
2022-12-08T04:40:35.483Z,10.27
2022-12-08T04:43:01.923Z,9.70
2022-12-08T04:45:28.355Z,9.55
2022-12-08T04:47:54.769Z,10.13
2022-12-08T04:50:21.174Z,10.07
2022-12-08T04:52:47.605Z,11.13
2022-12-08T04:55:13.966Z,10.43
2022-12-08T04:57:40.437Z,10.02
2022-12-08T05:00:07.938Z,10.15
2022-12-08T05:02:34.628Z,9.55
2022-12-08T05:05:01.327Z,10.40
2022-12-08T05:07:27.965Z,10.15
2022-12-08T05:09:54.428Z,10.25
2022-12-08T05:12:20.867Z,10.15
2022-12-08T05:14:48.309Z,11.30
2022-12-08T05:17:15.891Z,11.68
2022-12-08T05:19:42.485Z,11.30
2022-12-08T05:22:09.130Z,11.38
2022-12-08T05:24:35.644Z,11.80
2022-12-08T05:27:02.161Z,12.68
2022-12-08T05:29:28.606Z,11.68
2022-12-08T05:31:55.125Z,11.80
2022-12-08T05:34:21.642Z,12.77
2022-12-08T05:36:48.185Z,12.80
2022-12-08T05:39:14.874Z,13.77
2022-12-08T05:41:41.795Z,14.48
2022-12-08T05:44:08.614Z,13.40
2022-12-08T05:46:35.403Z,13.88
2022-12-08T05:49:02.381Z,14.05
2022-12-08T05:51:28.961Z,13.25
2022-12-08T05:53:55.657Z,13.95
2022-12-08T05:56:22.853Z,14.10
2022-12-08T05:58:50.124Z,14.30
2022-12-08T06:01:27.713Z,15.85
2022-12-08T06:03:55.003Z,14.95
2022-12-08T06:06:21.764Z,15.05
2022-12-08T06:08:48.847Z,16.70
2022-12-08T06:11:21.024Z,17.52
2022-12-08T06:13:47.873Z,17.13
2022-12-08T06:16:14.321Z,18.13
2022-12-08T06:18:40.849Z,17.58
2022-12-08T06:21:09.986Z,18.55
2022-12-08T06:23:37.028Z,17.85
2022-12-08T06:26:09.224Z,18.45
2022-12-08T06:28:36.430Z,18.42
2022-12-08T06:31:11.703Z,19.67
2022-12-08T06:33:38.622Z,17.88
2022-12-08T06:36:06.285Z,17.58
2022-12-08T06:38:33.110Z,16.90
2022-12-08T06:41:00.135Z,15.93
2022-12-08T06:43:27.521Z,16.60
2022-12-08T06:45:54.068Z,16.63
2022-12-08T06:48:20.669Z,16.17
2022-12-08T06:50:47.072Z,16.02
2022-12-08T06:53:16.638Z,16.17
2022-12-08T06:56:00.803Z,15.30
2022-12-08T06:58:27.348Z,15.13
2022-12-08T07:00:54.225Z,15.57
2022-12-08T07:03:20.870Z,16.05
2022-12-08T07:05:47.388Z,15.25
2022-12-08T07:08:13.895Z,16.35
2022-12-08T07:10:40.424Z,16.00
2022-12-08T07:13:06.901Z,15.60
2022-12-08T07:15:33.293Z,15.30
2022-12-08T07:18:00.512Z,14.35
2022-12-08T07:20:27.419Z,15.38
2022-12-08T07:22:54.204Z,15.88
2022-12-08T07:25:20.726Z,16.58
2022-12-08T07:27:48.054Z,15.57
2022-12-08T07:30:14.921Z,14.82
2022-12-08T07:32:41.431Z,14.25
2022-12-08T07:35:08.889Z,14.05
2022-12-08T07:37:37.481Z,14.70
2022-12-08T07:40:08.644Z,14.60
2022-12-08T07:42:35.506Z,14.65
2022-12-08T07:45:02.258Z,16.08
2022-12-08T07:47:28.694Z,15.52
2022-12-08T07:49:55.165Z,14.25
2022-12-08T07:52:21.561Z,14.57
2022-12-08T07:54:47.947Z,14.65
2022-12-08T07:57:14.640Z,14.30
2022-12-08T07:59:41.110Z,13.85
2022-12-08T08:02:24.337Z,14.73
2022-12-08T08:04:51.909Z,13.60
2022-12-08T08:07:18.383Z,12.43
2022-12-08T08:09:45.823Z,12.82
2022-12-08T08:12:30.665Z,12.95
2022-12-08T08:14:58.960Z,12.48
2022-12-08T08:17:25.508Z,12.80
2022-12-08T08:19:52.090Z,13.48
2022-12-08T08:22:18.478Z,12.93
2022-12-08T08:24:45.411Z,12.63
2022-12-08T08:27:12.065Z,13.13
2022-12-08T08:29:38.536Z,13.23
2022-12-08T08:32:05.053Z,12.65
2022-12-08T08:34:31.496Z,12.32
2022-12-08T08:36:58.037Z,12.27
2022-12-08T08:39:24.597Z,12.75
2022-12-08T08:41:51.011Z,13.15
2022-12-08T08:44:17.451Z,12.55
2022-12-08T08:46:44.207Z,12.82
2022-12-08T08:49:10.713Z,13.60
2022-12-08T08:51:37.200Z,15.38
2022-12-08T08:54:03.641Z,14.90
2022-12-08T08:56:30.136Z,15.13
2022-12-08T08:58:56.626Z,15.00
2022-12-08T09:01:26.856Z,16.00
2022-12-08T09:03:54.805Z,17.40
2022-12-08T09:06:22.021Z,16.98
2022-12-08T09:08:48.999Z,17.30
2022-12-08T09:11:18.469Z,17.70
2022-12-08T09:13:48.254Z,17.45
2022-12-08T09:16:15.011Z,18.65
2022-12-08T09:18:41.557Z,17.10
2022-12-08T09:21:13.006Z,18.05
2022-12-08T09:23:39.496Z,18.10
2022-12-08T09:26:07.836Z,17.23
2022-12-08T09:28:34.281Z,17.50
2022-12-08T09:31:01.968Z,16.20
2022-12-08T09:33:28.534Z,16.42
2022-12-08T09:35:54.928Z,17.10
2022-12-08T09:38:21.472Z,17.98
2022-12-08T09:40:53.673Z,19.00
2022-12-08T09:43:20.046Z,18.10
2022-12-08T09:45:48.263Z,18.30
2022-12-08T09:48:22.846Z,17.73
2022-12-08T09:50:57.249Z,17.27
2022-12-08T09:53:36.865Z,16.95
2022-12-08T09:56:12.333Z,16.45
2022-12-08T09:58:48.929Z,15.63
2022-12-08T10:01:16.611Z,14.90
2022-12-08T10:03:43.943Z,15.88
2022-12-08T10:06:33.537Z,14.80
2022-12-08T10:09:23.890Z,14.43
2022-12-08T10:11:56.807Z,13.75
2022-12-08T10:14:34.139Z,14.30
2022-12-08T10:17:22.724Z,14.10
2022-12-08T10:19:55.462Z,14.15
2022-12-08T10:22:24.746Z,14.13
2022-12-08T10:25:18.353Z,13.63
2022-12-08T10:27:48.209Z,12.88
2022-12-08T10:30:17.071Z,12.48
2022-12-08T10:32:46.344Z,11.82
2022-12-08T10:35:15.795Z,12.25
2022-12-08T10:37:56.908Z,12.20
2022-12-08T10:40:26.973Z,11.35
2022-12-08T10:42:57.479Z,11.52
2022-12-08T10:45:31.122Z,12.02
2022-12-08T10:48:04.384Z,11.90
2022-12-08T10:50:36.606Z,11.90
2022-12-08T10:53:19.732Z,12.40
2022-12-08T10:55:50.962Z,12.20
2022-12-08T10:58:42.682Z,12.13
2022-12-08T11:01:22.223Z,12.25
2022-12-08T11:04:00.846Z,12.88
2022-12-08T11:06:30.393Z,12.63
2022-12-08T11:08:59.740Z,12.05
2022-12-08T11:11:44.801Z,12.60
2022-12-08T11:14:25.600Z,12.98
2022-12-08T11:16:55.922Z,12.45
2022-12-08T11:19:27.652Z,12.45
2022-12-08T11:21:54.141Z,12.27
2022-12-08T11:24:34.647Z,11.10
2022-12-08T11:27:05.482Z,12.45
2022-12-08T11:29:33.756Z,13.25
2022-12-08T11:32:11.512Z,11.15
2022-12-08T11:35:06.281Z,11.88
2022-12-08T11:37:43.812Z,12.30
2022-12-08T11:40:36.209Z,12.60
2022-12-08T11:43:15.498Z,11.65
2022-12-08T11:45:42.223Z,12.50
2022-12-08T11:48:19.123Z,11.82
2022-12-08T11:50:51.603Z,11.45
2022-12-08T11:53:29.864Z,11.82
2022-12-08T11:56:08.352Z,12.88
2022-12-08T11:58:49.589Z,12.52
2022-12-08T12:01:22.427Z,11.52
2022-12-08T12:04:12.460Z,11.75
2022-12-08T12:06:56.831Z,12.00
2022-12-08T12:09:58.837Z,10.60
2022-12-08T12:13:00.075Z,11.05
2022-12-08T12:16:04.230Z,11.75
2022-12-08T12:18:49.967Z,10.82
2022-12-08T12:21:31.114Z,10.80
2022-12-08T12:24:03.608Z,9.82
2022-12-08T12:26:32.740Z,10.93
2022-12-08T12:29:06.646Z,10.30
2022-12-08T12:31:43.466Z,10.10
2022-12-08T12:34:34.142Z,9.48
2022-12-08T12:37:05.887Z,9.77
2022-12-08T12:39:45.329Z,9.43
2022-12-08T12:42:43.865Z,9.80
2022-12-08T12:45:34.088Z,9.23
2022-12-08T12:48:00.476Z,9.23
2022-12-08T12:50:32.964Z,9.30
2022-12-08T12:53:17.918Z,8.75
2022-12-08T12:55:54.784Z,8.63
2022-12-08T12:58:30.189Z,8.90
2022-12-08T13:01:12.508Z,9.70
2022-12-08T13:04:09.095Z,8.90
2022-12-08T13:06:40.493Z,7.63
2022-12-08T13:09:16.888Z,8.25
2022-12-08T13:11:55.821Z,8.10
2022-12-08T13:14:47.510Z,8.65
2022-12-08T13:17:22.666Z,8.38
2022-12-08T13:22:50.179Z,8.30
2022-12-08T13:25:44.377Z,7.90
2022-12-08T13:28:26.462Z,8.13
2022-12-08T13:30:59.895Z,7.93
2022-12-08T13:33:27.818Z,7.75
2022-12-08T13:36:02.423Z,7.53
2022-12-08T13:38:32.571Z,7.80
2022-12-08T13:41:03.274Z,7.60
2022-12-08T13:44:02.555Z,8.25
2022-12-08T13:47:09.824Z,7.80
2022-12-08T13:58:34.453Z,6.95
2022-12-08T14:01:22.128Z,7.20
2022-12-08T14:04:31.119Z,7.32
2022-12-08T14:06:45.543Z,7.60
2022-12-08T14:09:16.163Z,6.65
2022-12-08T14:12:03.300Z,6.93
2022-12-08T14:15:01.259Z,7.05
2022-12-08T14:17:22.149Z,7.72
2022-12-08T14:19:57.038Z,7.57
2022-12-08T14:22:23.986Z,6.65
2022-12-08T14:24:53.536Z,6.68
2022-12-08T14:27:23.004Z,7.40
2022-12-08T14:29:58.230Z,6.75
2022-12-08T14:35:03.055Z,5.93
2022-12-08T14:37:32.855Z,6.68
2022-12-08T14:40:23.114Z,7.05
2022-12-08T14:43:06.054Z,6.63
2022-12-08T14:45:35.322Z,6.32
2022-12-08T14:48:33.610Z,7.50
2022-12-08T14:51:18.795Z,7.57
2022-12-08T14:53:55.430Z,8.32
2022-12-08T14:56:31.578Z,6.95
2022-12-08T14:59:19.792Z,7.15
2022-12-08T15:01:48.102Z,7.50
2022-12-08T15:04:14.775Z,7.38
2022-12-08T15:06:51.984Z,6.82
2022-12-08T15:09:30.959Z,6.63
2022-12-08T15:12:26.730Z,7.88
2022-12-08T15:15:15.234Z,6.28
2022-12-08T15:17:48.858Z,6.40
2022-12-08T15:20:41.757Z,6.80
2022-12-08T15:23:21.991Z,7.75
2022-12-08T15:25:49.364Z,6.70
2022-12-08T15:28:18.606Z,7.80
2022-12-08T15:30:45.423Z,7.45
2022-12-08T15:33:11.831Z,7.63
2022-12-08T15:35:40.956Z,8.07
2022-12-08T15:38:30.348Z,7.32
2022-12-08T15:41:00.673Z,7.57
2022-12-08T15:43:27.907Z,7.90
2022-12-08T15:45:59.374Z,8.32
2022-12-08T15:48:28.517Z,8.63
2022-12-08T15:50:56.082Z,8.07
2022-12-08T15:53:22.901Z,8.00
2022-12-08T15:56:18.815Z,8.18
2022-12-08T15:58:55.281Z,7.60
2022-12-08T16:01:23.079Z,7.75
2022-12-08T16:09:36.967Z,7.57
2022-12-08T16:12:23.194Z,7.90
2022-12-08T16:17:36.850Z,7.07
2022-12-08T16:20:06.334Z,7.00
2022-12-08T16:25:22.003Z,7.35
2022-12-08T16:28:17.197Z,8.27
2022-12-08T16:30:40.706Z,7.13
2022-12-08T16:33:07.225Z,7.00
2022-12-08T16:35:33.815Z,7.60
2022-12-08T16:38:00.381Z,7.85
2022-12-08T16:40:26.847Z,7.15
2022-12-08T16:42:53.525Z,7.38
2022-12-08T16:45:25.757Z,8.20
2022-12-08T16:47:54.793Z,7.63
2022-12-08T16:50:29.653Z,8.95
2022-12-08T16:52:58.703Z,8.75
2022-12-08T16:55:25.178Z,6.90
2022-12-08T16:57:51.985Z,7.63
2022-12-08T17:00:21.499Z,7.63
2022-12-08T17:02:49.080Z,7.32
2022-12-08T17:05:17.621Z,7.45
2022-12-08T17:07:46.115Z,7.65
2022-12-08T17:10:16.167Z,7.78
2022-12-08T17:12:43.321Z,8.05
2022-12-08T17:15:13.084Z,7.68
2022-12-08T17:17:40.060Z,6.95
2022-12-08T17:20:09.946Z,6.90
2022-12-08T17:22:36.381Z,7.22
2022-12-08T17:25:03.986Z,6.80
2022-12-08T17:27:30.933Z,6.38
2022-12-08T17:29:57.432Z,7.00
2022-12-08T17:32:24.255Z,6.40
2022-12-08T17:34:50.844Z,5.95
2022-12-08T17:37:17.692Z,6.68
2022-12-08T17:39:44.509Z,6.65
2022-12-08T17:42:11.074Z,6.03
2022-12-08T17:44:37.545Z,7.10
2022-12-08T17:47:05.108Z,6.60
2022-12-08T17:49:32.849Z,7.68
2022-12-08T17:52:01.827Z,6.90
2022-12-08T17:54:28.954Z,6.70
2022-12-08T17:56:58.542Z,6.57
2022-12-08T17:59:25.728Z,6.93
2022-12-08T18:01:53.783Z,7.28
2022-12-08T18:04:20.871Z,7.65
2022-12-08T18:06:47.496Z,7.05
2022-12-08T18:09:14.819Z,6.80
2022-12-08T18:11:42.702Z,7.40
2022-12-08T18:14:10.324Z,7.20
2022-12-08T18:16:42.592Z,7.55
2022-12-08T18:19:12.423Z,7.38
2022-12-08T18:21:39.712Z,8.02
2022-12-08T18:24:06.764Z,7.43
2022-12-08T18:26:33.410Z,7.60
2022-12-08T18:29:00.010Z,7.68
2022-12-08T18:31:26.855Z,7.20
2022-12-08T18:33:53.752Z,7.47
2022-12-08T18:36:23.936Z,7.43
2022-12-08T18:38:51.535Z,7.05
2022-12-08T18:41:20.630Z,7.65
2022-12-08T18:43:47.094Z,7.30
2022-12-08T18:46:14.752Z,7.20
2022-12-08T18:48:44.734Z,7.18
2022-12-08T18:51:12.777Z,7.07
2022-12-08T18:53:39.730Z,7.88
2022-12-08T18:56:06.962Z,7.35
2022-12-08T18:58:33.687Z,7.43
2022-12-08T19:01:00.331Z,7.25
2022-12-08T19:03:26.859Z,7.10
2022-12-08T19:06:04.666Z,7.38
2022-12-08T19:08:31.634Z,7.47
2022-12-08T19:10:58.680Z,7.18
2022-12-08T19:13:25.604Z,7.72
2022-12-08T19:15:52.036Z,7.18
2022-12-08T19:18:18.671Z,6.57
2022-12-08T19:22:36.767Z,7.43
2022-12-08T19:25:04.665Z,8.55
2022-12-08T19:27:33.981Z,7.80
2022-12-08T19:30:00.649Z,8.15
2022-12-08T19:32:27.076Z,7.80
2022-12-08T19:34:53.475Z,8.02
2022-12-08T19:37:19.890Z,8.27
2022-12-08T19:40:04.949Z,8.40
2022-12-08T19:42:49.966Z,7.90
2022-12-08T19:45:21.511Z,8.55
2022-12-08T19:47:48.429Z,8.27
2022-12-08T19:50:34.871Z,8.38
2022-12-08T19:53:02.057Z,7.72
2022-12-08T19:55:29.001Z,8.15
2022-12-08T19:57:56.961Z,8.10
2022-12-08T20:00:24.004Z,7.93
2022-12-08T20:02:50.564Z,8.55
2022-12-08T20:05:16.981Z,8.65
2022-12-08T20:07:43.861Z,8.02
2022-12-08T20:10:22.760Z,7.78
2022-12-08T20:12:49.352Z,8.43
2022-12-08T20:15:15.954Z,10.02
2022-12-08T20:17:43.583Z,8.98
2022-12-08T20:20:10.911Z,9.40
2022-12-08T20:22:37.528Z,8.70
2022-12-08T20:25:04.151Z,8.82
2022-12-08T20:27:30.752Z,8.48
2022-12-08T20:29:57.118Z,9.77
2022-12-08T20:32:23.773Z,8.98
2022-12-08T20:34:50.360Z,9.27
2022-12-08T20:37:16.725Z,8.45
2022-12-08T20:39:43.149Z,9.50
2022-12-08T20:42:13.561Z,9.10
2022-12-08T20:44:44.135Z,9.63
2022-12-08T20:47:11.981Z,9.52
2022-12-08T20:49:38.662Z,9.40
2022-12-08T20:52:05.589Z,9.25
2022-12-08T20:54:32.175Z,9.30
2022-12-08T20:56:59.114Z,9.75
2022-12-08T20:59:26.678Z,10.70
2022-12-08T21:01:53.884Z,10.15
2022-12-08T21:04:21.206Z,9.57
2022-12-08T21:06:48.083Z,11.07
2022-12-08T21:09:14.618Z,9.60
2022-12-08T21:11:41.350Z,10.23
2022-12-08T21:14:08.009Z,9.95
2022-12-08T21:16:34.754Z,10.70
2022-12-08T21:19:01.260Z,10.07
2022-12-08T21:21:27.739Z,10.73
2022-12-08T21:23:54.254Z,10.50
2022-12-08T21:26:25.812Z,9.68
2022-12-08T21:28:54.719Z,10.55
2022-12-08T21:31:21.914Z,10.45
2022-12-08T21:33:49.215Z,11.85
2022-12-08T21:36:18.394Z,10.45
2022-12-08T21:38:45.010Z,11.27
2022-12-08T21:41:15.810Z,10.95
2022-12-08T21:43:42.827Z,12.40
2022-12-08T21:46:16.935Z,11.43
2022-12-08T21:48:43.875Z,11.20
2022-12-08T21:51:10.320Z,11.55
2022-12-08T21:53:37.077Z,12.75
2022-12-08T21:56:08.808Z,12.95
2022-12-08T21:58:35.399Z,11.35
2022-12-08T22:01:06.772Z,11.98
2022-12-08T22:03:33.432Z,11.07
2022-12-08T22:06:12.314Z,10.48
2022-12-08T22:08:39.469Z,10.75
2022-12-08T22:11:08.091Z,11.02
2022-12-08T22:13:36.641Z,11.75
2022-12-08T22:16:05.528Z,11.25
2022-12-08T22:18:32.434Z,11.02
2022-12-08T22:20:59.245Z,10.15
2022-12-08T22:23:26.104Z,11.15
2022-12-08T22:26:00.142Z,11.48
2022-12-08T22:28:28.349Z,11.13
2022-12-08T22:30:54.842Z,11.32
2022-12-08T22:33:21.355Z,10.90
2022-12-08T22:36:09.668Z,11.43
2022-12-08T22:38:37.346Z,12.00
2022-12-08T22:41:05.628Z,11.82
2022-12-08T22:43:32.660Z,11.80
2022-12-08T22:45:59.300Z,11.60
2022-12-08T22:48:26.139Z,11.55
2022-12-08T22:50:59.001Z,13.43
2022-12-08T22:53:25.889Z,11.52
2022-12-08T22:55:52.378Z,11.98
2022-12-08T22:58:19.878Z,11.00
2022-12-08T23:00:46.381Z,12.68
2022-12-08T23:03:12.987Z,12.25
2022-12-08T23:05:40.538Z,12.23
2022-12-08T23:08:08.936Z,12.60
2022-12-08T23:10:35.850Z,12.10
2022-12-08T23:13:04.142Z,12.98
2022-12-08T23:15:31.597Z,12.05
2022-12-08T23:17:58.138Z,12.32
2022-12-08T23:20:24.902Z,11.65
2022-12-08T23:22:51.676Z,12.25
2022-12-08T23:25:18.522Z,11.73
2022-12-08T23:27:46.153Z,11.82
2022-12-08T23:30:13.596Z,12.30
2022-12-08T23:32:40.440Z,12.57
2022-12-08T23:35:07.979Z,12.40
2022-12-08T23:37:34.817Z,12.15
2022-12-08T23:40:01.480Z,12.10
2022-12-08T23:42:29.959Z,13.50
2022-12-08T23:44:56.537Z,11.85
2022-12-08T23:47:23.120Z,13.80
2022-12-08T23:49:49.535Z,12.63
2022-12-08T23:52:16.043Z,12.25
2022-12-08T23:54:42.445Z,12.75
2022-12-08T23:57:08.890Z,13.10
2022-12-08T23:59:35.313Z,12.82
